Terminal Aerodrome Forecast
Issued by NWS Omaha/Valley, NE

Home | Current Version | Previous Version | Graphics & Text | Print | Product List | Glossary On
Versions: 1 2 3 4 5 6 7 8 9 10 11 12 13 14 15 16 17 18
000
FTUS43 KOAX 210520
TAFOFK
TAF
KOFK 210520Z 2106/2206 30014KT P6SM OVC010
     FM211200 29010KT P6SM SCT015 BKN045
     FM211500 30013KT P6SM FEW020 SCT045
     FM212100 31012KT P6SM FEW090 FEW200
     FM220300 22004KT P6SM FEW250=

USA.gov is the U.S. government's official web portal to all federal, state and local government web resources and services.